createdAt,value
2019-01-06T00:05:17.946Z,100934.34
2019-01-06T00:10:36.770Z,100939.34
2019-01-06T00:15:55.877Z,100947.80
2019-01-06T00:21:17.656Z,100947.80
2019-01-06T00:26:43.052Z,100967.09
2019-01-06T00:32:11.828Z,100971.07
2019-01-06T00:37:47.125Z,100973.50
2019-01-06T00:43:09.192Z,100973.50
2019-01-06T00:48:28.157Z,100986.30
2019-01-06T00:53:58.189Z,100986.30
2019-01-06T00:59:20.145Z,100995.23
2019-01-06T01:04:41.863Z,100986.97
2019-01-06T01:10:04.893Z,100997.34
2019-01-06T01:15:27.045Z,101019.34
2019-01-06T01:20:43.329Z,101028.28
2019-01-06T01:26:05.404Z,101028.28
2019-01-06T01:31:27.143Z,101033.56
2019-01-06T01:37:05.166Z,101026.48
2019-01-06T01:42:31.081Z,101026.48
2019-01-06T01:47:56.062Z,101028.14
2019-01-06T01:53:17.905Z,101040.69
2019-01-06T01:58:59.415Z,101044.11
2019-01-06T02:04:23.732Z,101037.56
2019-01-06T02:09:45.433Z,101022.65
2019-01-06T02:15:17.327Z,101030.57
2019-01-06T02:20:38.951Z,101030.57
2019-01-06T02:26:00.764Z,101038.89
2019-01-06T02:31:22.383Z,101048.56
2019-01-06T02:36:44.150Z,101033.48
2019-01-06T02:42:16.136Z,101033.48
2019-01-06T02:47:40.318Z,101060.91
2019-01-06T02:53:09.410Z,101071.13
2019-01-06T02:58:30.650Z,101072.61
2019-01-06T03:03:46.183Z,101056.66
2019-01-06T03:09:08.088Z,101056.66
2019-01-06T03:14:34.161Z,101067.08
2019-01-06T03:19:57.148Z,101058.53
2019-01-06T03:25:35.200Z,101058.53
2019-01-06T03:31:01.084Z,101059.81
2019-01-06T03:36:27.127Z,101063.39
2019-01-06T03:41:48.576Z,101054.08
2019-01-06T03:47:09.678Z,101054.08
2019-01-06T03:52:31.976Z,101073.29
2019-01-06T03:57:47.272Z,101073.29
2019-01-06T04:02:58.454Z,101074.27
2019-01-06T04:08:27.442Z,101067.74
2019-01-06T04:13:56.766Z,101063.11
2019-01-06T04:19:16.892Z,101065.36
2019-01-06T04:24:39.876Z,101065.36
2019-01-06T04:30:05.973Z,101081.06
2019-01-06T04:35:36.640Z,101099.53
2019-01-06T04:40:58.190Z,101093.27
2019-01-06T04:46:16.346Z,101116.40
2019-01-06T04:51:36.385Z,101111.69
2019-01-06T04:57:04.356Z,101119.13
2019-01-06T05:02:22.088Z,101117.66
2019-01-06T05:07:51.420Z,101120.40
2019-01-06T05:13:13.246Z,101128.53
2019-01-06T05:18:54.357Z,101128.53
2019-01-06T05:24:23.173Z,101122.41
2019-01-06T05:29:59.651Z,101137.11
2019-01-06T05:35:22.848Z,101139.84
2019-01-06T05:40:47.438Z,101139.84
2019-01-06T05:46:13.205Z,101146.53
2019-01-06T05:51:36.189Z,101157.30
2019-01-06T05:56:59.162Z,101149.81
2019-01-06T06:02:25.248Z,101153.33
2019-01-06T06:07:51.014Z,101168.78
2019-01-06T06:13:17.028Z,101163.59
2019-01-06T06:18:52.317Z,101172.12
2019-01-06T06:24:12.252Z,101165.09
2019-01-06T06:29:28.417Z,101173.56
2019-01-06T06:34:54.176Z,101190.77
2019-01-06T06:40:19.960Z,101190.77
2019-01-06T06:45:42.666Z,101200.05
2019-01-06T06:51:13.926Z,101194.20
2019-01-06T06:56:42.558Z,101210.66
2019-01-06T07:02:48.588Z,101218.09
2019-01-06T07:08:10.422Z,101220.48
2019-01-06T07:13:31.903Z,101212.63
2019-01-06T07:18:57.263Z,101227.58
2019-01-06T07:24:38.400Z,101218.33
2019-01-06T07:30:10.021Z,101239.63
2019-01-06T07:35:32.867Z,101239.63
2019-01-06T07:41:14.185Z,101235.34
2019-01-06T07:46:42.845Z,101237.31
2019-01-06T07:52:14.985Z,101265.80
2019-01-06T07:57:43.780Z,101265.80
2019-01-06T08:03:12.276Z,101281.22
2019-01-06T08:08:44.167Z,101273.70
2019-01-06T08:14:04.459Z,101277.83
2019-01-06T08:19:26.427Z,101286.38
2019-01-06T08:24:46.424Z,101281.61
2019-01-06T08:30:08.100Z,101271.81
2019-01-06T08:35:39.019Z,101285.73
2019-01-06T08:41:08.061Z,101305.95
2019-01-06T08:46:35.611Z,101301.91
2019-01-06T08:52:05.614Z,101290.51
2019-01-06T08:57:27.250Z,101308.08
2019-01-06T09:02:49.206Z,101311.89
2019-01-06T09:08:30.315Z,101312.67
2019-01-06T09:13:52.306Z,101308.11
2019-01-06T09:19:11.881Z,101316.91
2019-01-06T09:24:34.932Z,101318.39
2019-01-06T09:30:13.340Z,101321.39
2019-01-06T09:35:42.176Z,101328.67
2019-01-06T09:41:04.173Z,101312.75
2019-01-06T09:46:33.139Z,101326.78
2019-01-06T09:52:08.541Z,101318.95
2019-01-06T09:57:44.083Z,101318.95
2019-01-06T10:03:07.184Z,101327.02
2019-01-06T10:08:31.356Z,101324.50
2019-01-06T10:13:56.895Z,101324.50
2019-01-06T10:19:27.550Z,101338.30
2019-01-06T10:24:52.135Z,101337.70
2019-01-06T10:30:16.305Z,101332.27
2019-01-06T10:35:38.126Z,101328.09
2019-01-06T10:41:10.450Z,101314.95
2019-01-06T10:46:32.211Z,101330.20
2019-01-06T10:51:55.281Z,101321.51
2019-01-06T10:57:12.546Z,101314.92
2019-01-06T11:02:38.655Z,101317.47
2019-01-06T11:08:00.240Z,101321.64
2019-01-06T11:13:22.297Z,101321.64
2019-01-06T11:18:48.749Z,101320.77
2019-01-06T11:24:08.225Z,101324.55
2019-01-06T11:29:30.119Z,101317.52
2019-01-06T11:34:53.131Z,101310.50
2019-01-06T11:40:27.683Z,101303.77
2019-01-06T11:45:56.927Z,101307.75
2019-01-06T11:51:12.923Z,101307.75
2019-01-06T11:56:48.499Z,101294.72
2019-01-06T12:02:13.119Z,101294.72
2019-01-06T12:07:55.086Z,101312.20
2019-01-06T12:13:17.386Z,101292.31
2019-01-06T12:18:50.570Z,101292.31
2019-01-06T12:24:12.776Z,101302.77
2019-01-06T12:29:43.281Z,101283.98
2019-01-06T12:35:06.891Z,101287.38
2019-01-06T12:40:33.514Z,101317.93
2019-01-06T12:46:05.492Z,101319.47
2019-01-06T12:51:44.098Z,101316.92
2019-01-06T12:57:15.642Z,101316.92
2019-01-06T13:02:37.610Z,101317.58
2019-01-06T13:08:06.170Z,101317.58
2019-01-06T13:13:28.108Z,101316.61
2019-01-06T13:18:44.493Z,101316.61
2019-01-06T13:24:10.434Z,101323.25
2019-01-06T13:29:26.813Z,101322.08
2019-01-06T13:34:50.420Z,101322.08
2019-01-06T13:40:12.509Z,101339.44
2019-01-06T13:45:35.558Z,101340.52
2019-01-06T13:51:00.410Z,101320.73
2019-01-06T13:56:27.490Z,101334.26
2019-01-06T14:01:54.241Z,101351.27
2019-01-06T14:07:17.310Z,101350.45
2019-01-06T14:12:47.606Z,101356.99
2019-01-06T14:18:10.632Z,101355.19
2019-01-06T14:23:32.754Z,101357.39
2019-01-06T14:29:01.803Z,101350.28
2019-01-06T14:34:30.269Z,101357.64
2019-01-06T14:40:02.497Z,101356.22
2019-01-06T14:45:37.404Z,101362.29
2019-01-06T14:50:58.700Z,101363.38
2019-01-06T14:56:34.423Z,101363.38
2019-01-06T15:01:56.209Z,101372.75
2019-01-06T15:07:27.882Z,101378.95
2019-01-06T15:12:47.066Z,101376.48
2019-01-06T15:18:09.744Z,101369.16
2019-01-06T15:23:32.852Z,101377.44
2019-01-06T15:28:54.832Z,101376.00
2019-01-06T15:34:16.855Z,101377.81
2019-01-06T15:39:51.324Z,101356.13
2019-01-06T15:45:06.832Z,101369.57
2019-01-06T15:50:28.617Z,101369.57
2019-01-06T15:55:56.486Z,101368.80
2019-01-06T16:01:11.555Z,101367.16
2019-01-06T16:06:34.663Z,101375.05
2019-01-06T16:12:03.633Z,101370.89
2019-01-06T16:17:32.307Z,101373.89
2019-01-06T16:23:01.198Z,101374.53
2019-01-06T16:28:23.031Z,101383.30
2019-01-06T16:33:52.133Z,101383.55
2019-01-06T16:39:10.557Z,101383.55
2019-01-06T16:44:34.336Z,101375.61
2019-01-06T16:49:57.474Z,101400.81
2019-01-06T16:55:29.338Z,101400.55
2019-01-06T17:00:49.418Z,101404.06
2019-01-06T17:06:11.172Z,101399.04
2019-01-06T17:11:29.732Z,101399.04
2019-01-06T17:17:07.959Z,101376.52
2019-01-06T17:22:42.672Z,101386.03
2019-01-06T17:28:11.943Z,101385.42
2019-01-06T17:33:34.811Z,101387.42
2019-01-06T17:38:58.186Z,101372.83
2019-01-06T17:44:20.016Z,101372.36
2019-01-06T17:50:01.381Z,101387.70
2019-01-06T17:55:42.850Z,101387.70
2019-01-06T18:01:05.836Z,101399.38
2019-01-06T18:06:31.616Z,101401.73
2019-01-06T18:11:51.663Z,101408.73
2019-01-06T18:17:23.934Z,101414.98
2019-01-06T18:23:05.323Z,101417.97
2019-01-06T18:28:40.518Z,101423.82
2019-01-06T18:33:58.495Z,101415.87
2019-01-06T18:39:20.355Z,101414.34
2019-01-06T18:44:42.270Z,101417.51
2019-01-06T18:49:59.853Z,101409.09
2019-01-06T18:55:21.939Z,101402.47
2019-01-06T19:00:54.483Z,101402.52
2019-01-06T19:06:32.902Z,101386.95
2019-01-06T19:12:05.014Z,101386.95
2019-01-06T19:17:26.584Z,101400.31
2019-01-06T19:22:48.597Z,101394.76
2019-01-06T19:28:11.338Z,101394.84
2019-01-06T19:33:32.985Z,101401.66
2019-01-06T19:38:54.574Z,101401.66
2019-01-06T19:44:11.090Z,101411.20
2019-01-06T19:49:41.471Z,101415.55
2019-01-06T19:55:00.353Z,101412.47
2019-01-06T20:00:36.433Z,101415.77
2019-01-06T20:05:54.126Z,101418.45
2019-01-06T20:11:21.296Z,101419.80
2019-01-06T20:16:43.216Z,101410.86
2019-01-06T20:22:04.801Z,101410.86
2019-01-06T20:27:19.786Z,101421.45
2019-01-06T20:32:41.811Z,101406.73
2019-01-06T20:38:01.384Z,101417.28
2019-01-06T20:43:23.295Z,101417.28
2019-01-06T20:48:52.549Z,101417.41
2019-01-06T20:54:14.604Z,101417.41
2019-01-06T20:59:36.439Z,101413.46
2019-01-06T21:04:58.021Z,101411.30
2019-01-06T21:10:33.498Z,101407.52
2019-01-06T21:15:55.338Z,101401.44
2019-01-06T21:21:13.765Z,101399.56
2019-01-06T21:26:39.987Z,101399.56
2019-01-06T21:32:01.770Z,101400.36
2019-01-06T21:37:22.422Z,101416.11
2019-01-06T21:42:44.249Z,101416.41
2019-01-06T21:48:09.769Z,101414.67
2019-01-06T21:53:32.779Z,101414.67
2019-01-06T21:58:54.412Z,101424.88
2019-01-06T22:04:23.446Z,101417.36
2019-01-06T22:09:45.065Z,101403.39
2019-01-06T22:14:58.954Z,101415.93
2019-01-06T22:20:12.961Z,101411.41
2019-01-06T22:25:38.746Z,101403.39
2019-01-06T22:31:00.288Z,101385.14
2019-01-06T22:36:35.720Z,101391.70
2019-01-06T22:42:15.165Z,101384.89
2019-01-06T22:47:35.745Z,101382.14
2019-01-06T22:52:57.847Z,101368.87
2019-01-06T22:58:19.456Z,101384.19
2019-01-06T23:03:51.782Z,101382.45
2019-01-06T23:09:10.938Z,101386.48
2019-01-06T23:14:26.462Z,101386.48
2019-01-06T23:19:55.303Z,101390.05
2019-01-06T23:25:27.272Z,101386.66
2019-01-06T23:30:46.616Z,101393.30
2019-01-06T23:36:12.466Z,101402.41
2019-01-06T23:41:34.071Z,101397.28
2019-01-06T23:46:56.009Z,101384.66
2019-01-06T23:52:17.777Z,101393.94
2019-01-06T23:57:39.480Z,101399.80
